Time;durP1;ratioP1;P1;durP2;ratioP2;P2;SDS_P1;SDS_P2;PMS_P1;PMS_P2;Temp;Humidity;BMP_temperature;BMP_pressure;BME280_temperature;BME280_humidity;BME280_pressure;Samples;Min_cycle;Max_cycle;Signal;HPM_P1;HPM_P2
2023/08/08 00:00:41;;;;;;;9.70;2.57;;;14.10;1.00;;;;;;9967737;29;20240;-77
2023/08/08 00:06:03;;;;;;;8.40;2.30;;;14.00;1.00;;;;;;9931022;29;20235;-77
2023/08/08 00:11:24;;;;;;;13.10;2.60;;;14.10;1.00;;;;;;9931238;29;20208;-76
2023/08/08 00:16:45;;;;;;;9.83;3.13;;;14.00;1.00;;;;;;9932253;29;20211;-75
2023/08/08 00:22:07;;;;;;;9.07;2.30;;;13.90;1.00;;;;;;9997307;29;20232;-76
2023/08/08 00:27:28;;;;;;;13.60;2.47;;;14.00;1.00;;;;;;9969437;29;20204;-76
2023/08/08 00:32:49;;;;;;;8.97;2.67;;;13.90;1.00;;;;;;9966961;29;20557;-79
2023/08/08 00:38:10;;;;;;;17.30;3.03;;;13.90;1.00;;;;;;9967431;29;20244;-76
2023/08/08 00:43:31;;;;;;;12.10;2.77;;;13.90;1.00;;;;;;9968666;29;20198;-75
2023/08/08 00:48:52;;;;;;;11.90;2.77;;;13.80;1.00;;;;;;9953196;29;20216;-76
2023/08/08 00:54:14;;;;;;;10.27;2.93;;;13.90;1.00;;;;;;9930004;30;20202;-76
2023/08/08 00:59:35;;;;;;;8.07;2.20;;;13.80;99.90;;;;;;9930741;29;20258;-76
2023/08/08 01:04:57;;;;;;;11.47;3.37;;;13.80;99.90;;;;;;9964923;29;20226;-76
2023/08/08 01:10:33;;;;;;;12.57;2.73;;;13.80;99.90;;;;;;9953834;29;20210;-77
2023/08/08 01:15:56;;;;;;;8.40;2.60;;;13.70;99.90;;;;;;9967433;29;20198;-77
2023/08/08 01:21:17;;;;;;;13.40;3.00;;;13.70;99.90;;;;;;9994188;29;20237;-76
2023/08/08 01:26:40;;;;;;;14.83;2.50;;;13.70;1.00;;;;;;9967798;29;20278;-76
2023/08/08 01:32:01;;;;;;;9.27;2.20;;;13.70;1.00;;;;;;9966654;29;20206;-76
2023/08/08 01:37:32;;;;;;;11.30;2.83;;;13.60;1.00;;;;;;9946689;29;20272;-75
2023/08/08 01:42:55;;;;;;;15.13;2.97;;;13.60;1.00;;;;;;9966642;29;20207;-79
2023/08/08 01:48:16;;;;;;;7.30;2.93;;;13.60;1.00;;;;;;9963852;29;20214;-76
2023/08/08 01:53:37;;;;;;;14.30;3.40;;;13.50;1.00;;;;;;9965586;29;20443;-76
2023/08/08 01:58:58;;;;;;;12.50;3.43;;;13.50;1.00;;;;;;9965132;29;20279;-77
2023/08/08 02:04:20;;;;;;;9.83;2.90;;;13.60;25.60;;;;;;9977873;29;20255;-76
2023/08/08 02:09:41;;;;;;;12.07;2.80;;;13.50;99.90;;;;;;9953234;29;20236;-75
2023/08/08 02:15:04;;;;;;;15.63;3.57;;;13.50;99.90;;;;;;9964700;29;20197;-77
2023/08/08 02:20:25;;;;;;;15.53;3.00;;;13.50;99.90;;;;;;9988959;29;20249;-77
2023/08/08 02:25:46;;;;;;;14.30;4.33;;;13.40;1.00;;;;;;9967290;29;20223;-74
2023/08/08 02:31:07;;;;;;;7.30;2.47;;;13.50;1.00;;;;;;9964302;29;20210;-75
2023/08/08 02:36:28;;;;;;;7.30;2.67;;;13.50;1.00;;;;;;9963110;29;20359;-75
2023/08/08 02:41:49;;;;;;;8.17;2.90;;;13.50;1.00;;;;;;9939216;29;20245;-76
2023/08/08 02:47:10;;;;;;;11.87;2.60;;;13.50;1.00;;;;;;9932620;29;20199;-77
2023/08/08 02:52:32;;;;;;;8.13;2.97;;;13.50;1.00;;;;;;9940976;29;20213;-78
2023/08/08 02:57:53;;;;;;;13.97;3.53;;;13.50;1.00;;;;;;9969907;29;20205;-76
2023/08/08 03:03:14;;;;;;;6.10;2.37;;;13.50;1.00;;;;;;9994120;29;20504;-77
2023/08/08 03:08:37;;;;;;;15.00;3.00;;;13.50;1.00;;;;;;9984181;29;20212;-76
2023/08/08 03:13:58;;;;;;;6.97;2.83;;;13.50;1.00;;;;;;9955446;29;20262;-76
2023/08/08 03:19:19;;;;;;;13.03;2.83;;;13.40;1.00;;;;;;9968082;29;20275;-75
2023/08/08 03:24:41;;;;;;;11.73;2.83;;;13.50;1.00;;;;;;9993153;29;20205;-76
2023/08/08 03:30:02;;;;;;;10.43;2.60;;;13.40;1.00;;;;;;10004844;29;20518;-75
2023/08/08 03:35:30;;;;;;;7.10;2.30;;;13.50;1.00;;;;;;9894803;29;1160056;-77
2023/08/08 03:40:51;;;;;;;8.27;2.70;;;13.50;1.00;;;;;;9961658;29;20245;-77
2023/08/08 03:46:13;;;;;;;8.03;2.10;;;13.50;1.00;;;;;;9969496;29;20484;-75
2023/08/08 03:51:35;;;;;;;6.03;2.20;;;13.60;1.00;;;;;;9969425;29;20414;-74
2023/08/08 03:56:57;;;;;;;5.20;2.27;;;13.50;1.00;;;;;;9967963;29;20255;-76
2023/08/08 04:02:19;;;;;;;10.40;2.37;;;13.50;1.00;;;;;;9986886;29;20389;-76
2023/08/08 04:07:41;;;;;;;7.20;2.50;;;13.50;99.90;;;;;;9998693;29;20206;-76
2023/08/08 04:13:02;;;;;;;13.37;2.57;;;13.40;99.90;;;;;;9969478;29;20207;-75
2023/08/08 04:18:23;;;;;;;7.30;2.40;;;13.50;1.00;;;;;;9969653;29;20222;-75
2023/08/08 04:23:44;;;;;;;8.97;2.73;;;13.40;1.00;;;;;;9961428;29;20247;-76
2023/08/08 04:29:05;;;;;;;10.80;2.90;;;13.50;1.00;;;;;;9931735;29;20206;-76
2023/08/08 04:34:27;;;;;;;9.40;2.37;;;13.50;1.00;;;;;;9965780;29;20295;-75
2023/08/08 04:39:48;;;;;;;6.87;2.20;;;13.50;1.00;;;;;;9968557;29;20424;-76
2023/08/08 04:45:09;;;;;;;8.90;2.30;;;13.60;1.00;;;;;;9966767;29;20222;-76
2023/08/08 04:50:30;;;;;;;9.87;2.53;;;13.70;1.00;;;;;;9968464;29;20210;-76
2023/08/08 04:55:51;;;;;;;8.90;3.17;;;13.70;99.90;;;;;;9968344;29;20277;-76
2023/08/08 05:01:14;;;;;;;6.77;2.70;;;13.70;99.90;;;;;;9975983;29;20228;-76
2023/08/08 05:06:35;;;;;;;9.33;2.57;;;13.70;99.90;;;;;;9986742;29;20420;-77
2023/08/08 05:11:56;;;;;;;10.00;3.60;;;13.70;99.90;;;;;;9966599;29;20208;-77
2023/08/08 05:17:17;;;;;;;10.10;2.33;;;13.70;62.50;;;;;;9995871;29;20211;-76
2023/08/08 05:22:38;;;;;;;9.17;2.33;;;13.80;1.00;;;;;;9993872;29;20552;-77
2023/08/08 05:27:59;;;;;;;5.80;2.87;;;14.00;71.20;;;;;;9966050;29;20197;-76
2023/08/08 05:33:21;;;;;;;10.03;2.47;;;14.00;1.00;;;;;;9965985;29;20217;-81
2023/08/08 05:38:42;;;;;;;6.13;2.10;;;14.00;1.00;;;;;;9965716;29;20242;-76
2023/08/08 05:44:03;;;;;;;7.13;2.40;;;14.00;1.00;;;;;;9962569;29;20230;-77
2023/08/08 05:49:25;;;;;;;6.43;2.03;;;14.00;1.00;;;;;;9965650;29;20256;-77
2023/08/08 05:54:46;;;;;;;6.90;2.00;;;14.10;1.00;;;;;;9965780;29;20202;-77
2023/08/08 06:00:10;;;;;;;6.93;2.13;;;14.10;1.00;;;;;;9966056;29;20465;-78
2023/08/08 06:05:35;;;;;;;11.43;2.60;;;14.20;1.00;;;;;;10001858;29;20206;-78
2023/08/08 06:10:56;;;;;;;8.05;1.65;;;14.40;1.00;;;;;;9928203;29;20204;-77
2023/08/08 06:16:18;;;;;;;4.53;1.73;;;14.50;99.90;;;;;;9956100;29;20208;-81
2023/08/08 06:21:39;;;;;;;6.18;2.10;;;14.50;99.90;;;;;;9965317;29;20237;-77
2023/08/08 06:27:00;;;;;;;9.43;2.07;;;14.60;99.90;;;;;;9965162;29;20200;-76
2023/08/08 06:32:21;;;;;;;4.20;1.70;;;14.60;99.90;;;;;;9962859;29;20294;-78
2023/08/08 06:37:43;;;;;;;6.03;1.73;;;14.60;99.90;;;;;;9962094;29;20262;-79
2023/08/08 06:43:05;;;;;;;8.80;2.33;;;14.70;99.90;;;;;;9963959;29;20305;-74
2023/08/08 06:48:26;;;;;;;5.30;2.00;;;14.70;99.90;;;;;;9965161;29;20214;-77
2023/08/08 06:53:47;;;;;;;6.00;1.80;;;15.10;99.90;;;;;;9949593;29;20232;-77
2023/08/08 06:59:08;;;;;;;8.55;2.38;;;15.70;99.90;;;;;;9963862;29;20239;-80
2023/08/08 07:04:30;;;;;;;9.02;2.55;;;16.00;99.90;;;;;;9948790;29;20437;-79
2023/08/08 07:09:51;;;;;;;9.13;2.37;;;16.00;70.30;;;;;;9973013;29;20269;-79
2023/08/08 07:15:12;;;;;;;8.18;2.45;;;15.80;44.00;;;;;;9971326;29;20297;-76
2023/08/08 07:20:34;;;;;;;8.93;3.08;;;15.60;76.60;;;;;;9958163;29;20251;-77
2023/08/08 07:25:55;;;;;;;7.22;1.90;;;15.60;43.00;;;;;;9959129;29;20214;-80
2023/08/08 07:31:16;;;;;;;5.82;2.10;;;15.70;47.80;;;;;;9946577;29;20325;-77
2023/08/08 07:36:37;;;;;;;8.15;1.83;;;15.70;14.40;;;;;;9968546;29;20240;-82
2023/08/08 07:41:59;;;;;;;8.40;2.47;;;16.60;1.00;;;;;;9941268;29;20482;-76
2023/08/08 07:47:20;;;;;;;10.27;2.25;;;17.60;1.00;;;;;;9927886;30;20395;-78
2023/08/08 07:52:41;;;;;;;6.65;2.13;;;17.80;1.00;;;;;;9929238;29;20204;-76
2023/08/08 07:58:02;;;;;;;7.40;1.90;;;17.70;1.00;;;;;;9979117;29;20213;-76
2023/08/08 08:03:23;;;;;;;5.82;2.22;;;17.60;1.00;;;;;;9973114;29;20292;-80
2023/08/08 08:08:45;;;;;;;8.23;2.15;;;16.90;1.00;;;;;;9963470;29;20268;-78
2023/08/08 08:14:06;;;;;;;4.97;1.80;;;16.80;1.00;;;;;;9966400;29;20215;-80
2023/08/08 08:19:27;;;;;;;4.53;1.98;;;16.80;1.00;;;;;;9968156;29;20243;-78
2023/08/08 08:24:48;;;;;;;5.03;2.08;;;17.70;1.00;;;;;;9963701;29;20216;-81
2023/08/08 08:30:10;;;;;;;5.53;2.10;;;18.70;1.00;;;;;;9960960;29;20207;-76
2023/08/08 08:35:32;;;;;;;9.80;2.28;;;18.50;1.00;;;;;;9961284;29;20318;-83
2023/08/08 08:40:56;;;;;;;5.63;1.77;;;18.10;1.00;;;;;;9960647;29;20248;-81
2023/08/08 08:46:21;;;;;;;5.07;1.80;;;17.70;1.00;;;;;;9964742;29;20210;-81
2023/08/08 08:51:42;;;;;;;7.57;2.00;;;18.30;1.00;;;;;;9999363;29;20229;-91
2023/08/08 08:57:04;;;;;;;8.70;2.47;;;18.60;1.00;;;;;;10000526;29;20206;-82
2023/08/08 09:02:25;;;;;;;6.47;2.10;;;18.10;1.00;;;;;;9973267;29;20253;-83
2023/08/08 09:07:46;;;;;;;7.53;1.70;;;17.80;1.00;;;;;;9955244;29;20261;-82
2023/08/08 09:13:07;;;;;;;5.10;1.80;;;17.90;1.00;;;;;;9993814;29;20201;-82
2023/08/08 09:18:28;;;;;;;4.10;1.67;;;17.50;1.00;;;;;;9942868;29;20209;-85
2023/08/08 09:23:49;;;;;;;7.72;2.13;;;17.10;1.00;;;;;;9974236;29;20478;-78
2023/08/08 09:29:15;;;;;;;12.10;2.33;;;18.20;1.00;;;;;;9961929;29;20209;-80
2023/08/08 09:34:36;;;;;;;8.70;2.03;;;19.40;1.00;;;;;;9961774;29;20308;-77
2023/08/08 09:39:59;;;;;;;6.15;1.90;;;19.00;1.00;;;;;;9962167;29;20314;-85
2023/08/08 09:45:22;;;;;;;6.07;1.80;;;18.30;1.00;;;;;;9947857;29;20225;-79
2023/08/08 09:50:44;;;;;;;8.05;1.95;;;18.80;1.00;;;;;;9970338;29;20324;-89
2023/08/08 09:56:06;;;;;;;7.00;2.03;;;20.00;1.00;;;;;;9963706;29;20441;-77
2023/08/08 10:01:28;;;;;;;5.05;1.63;;;19.90;1.00;;;;;;9960865;29;20581;-81
2023/08/08 10:06:49;;;;;;;7.50;1.63;;;19.70;1.00;;;;;;9977319;29;20216;-78
2023/08/08 10:12:11;;;;;;;4.88;1.92;;;20.80;1.00;;;;;;9966236;29;20721;-83
2023/08/08 10:17:42;;;;;;;6.03;1.88;;;21.60;1.00;;;;;;9961904;29;20445;-82
2023/08/08 10:23:04;;;;;;;4.93;1.60;;;22.30;1.00;;;;;;9969174;29;20236;-77
2023/08/08 10:28:26;;;;;;;5.57;1.65;;;22.20;1.00;;;;;;9966526;29;20222;-77
2023/08/08 10:33:47;;;;;;;5.32;1.52;;;21.30;1.00;;;;;;9958581;29;20468;-78
2023/08/08 10:39:15;;;;;;;3.65;1.48;;;20.20;1.00;;;;;;9960756;29;20299;-81
2023/08/08 10:44:42;;;;;;;4.60;1.35;;;18.90;1.00;;;;;;9959305;29;20278;-80
2023/08/08 10:50:07;;;;;;;6.30;1.73;;;17.70;1.00;;;;;;9959834;29;20434;-77
2023/08/08 10:55:34;;;;;;;3.38;1.52;;;17.70;1.00;;;;;;9966650;29;20216;-75
2023/08/08 11:00:57;;;;;;;3.53;1.40;;;18.70;1.00;;;;;;9976381;29;20243;-76
2023/08/08 11:06:18;;;;;;;3.53;1.60;;;19.60;99.90;;;;;;9969872;29;20219;-77
2023/08/08 11:11:40;;;;;;;3.50;1.80;;;19.60;43.80;;;;;;9970539;29;20584;-79
2023/08/08 11:17:01;;;;;;;10.68;3.53;;;19.10;79.80;;;;;;9967518;29;20224;-85
2023/08/08 11:22:23;;;;;;;3.17;1.48;;;20.00;30.80;;;;;;9968697;29;20232;-77
2023/08/08 11:27:54;;;;;;;3.20;1.40;;;20.20;1.00;;;;;;9965415;29;20212;-77
2023/08/08 11:33:17;;;;;;;4.78;1.42;;;20.20;1.00;;;;;;9958466;29;20540;-81
2023/08/08 11:38:43;;;;;;;3.50;1.40;;;19.40;1.00;;;;;;9952383;29;20248;-78
2023/08/08 11:44:05;;;;;;;3.53;1.30;;;19.10;1.00;;;;;;9964267;29;20212;-77
2023/08/08 11:49:26;;;;;;;5.85;1.40;;;19.60;1.00;;;;;;9961711;29;20496;-78
2023/08/08 11:54:53;;;;;;;3.80;1.60;;;20.40;1.00;;;;;;9962379;29;20235;-77
2023/08/08 12:00:16;;;;;;;3.72;1.55;;;21.10;1.00;;;;;;9963318;29;20228;-79
2023/08/08 12:05:38;;;;;;;2.78;1.33;;;21.50;1.00;;;;;;9993132;29;20479;-79
2023/08/08 12:11:01;;;;;;;3.15;1.25;;;21.70;1.00;;;;;;9963193;29;20208;-78
2023/08/08 12:16:22;;;;;;;9.05;1.52;;;21.60;1.00;;;;;;9921107;29;20280;-78
2023/08/08 12:21:43;;;;;;;6.55;2.17;;;21.60;1.00;;;;;;10002754;29;20246;-77
2023/08/08 12:27:05;;;;;;;4.38;1.95;;;22.00;1.00;;;;;;9996668;29;20196;-78
2023/08/08 12:32:31;;;;;;;2.65;1.20;;;21.90;1.00;;;;;;9953245;29;20221;-76
2023/08/08 12:37:52;;;;;;;1.77;0.77;;;21.50;1.00;;;;;;9928642;29;20241;-77
2023/08/08 12:43:18;;;;;;;1.90;0.90;;;21.10;1.00;;;;;;9967846;29;20230;-79
2023/08/08 12:48:40;;;;;;;2.03;1.17;;;20.90;1.00;;;;;;9962992;29;20246;-77
2023/08/08 12:54:01;;;;;;;4.43;1.33;;;21.10;1.00;;;;;;9963968;29;20208;-85
2023/08/08 12:59:22;;;;;;;11.68;1.77;;;21.00;1.00;;;;;;9948730;29;20612;-79
2023/08/08 13:04:43;;;;;;;4.22;1.95;;;20.80;1.00;;;;;;9946839;29;20220;-78
2023/08/08 13:10:05;;;;;;;3.72;1.13;;;20.60;1.00;;;;;;9969394;29;20196;-77
2023/08/08 13:15:26;;;;;;;2.97;1.20;;;20.50;1.00;;;;;;9970641;29;20204;-78
2023/08/08 13:20:47;;;;;;;1.67;0.93;;;20.90;1.00;;;;;;9925658;29;20311;-79
2023/08/08 13:26:08;;;;;;;1.65;0.90;;;21.10;1.00;;;;;;9948354;29;20444;-77
2023/08/08 13:31:29;;;;;;;3.13;1.20;;;20.80;1.00;;;;;;9959731;29;20204;-81
2023/08/08 13:36:50;;;;;;;1.10;0.75;;;20.40;1.00;;;;;;9960239;29;20558;-84
2023/08/08 13:42:12;;;;;;;2.95;1.42;;;19.70;1.00;;;;;;9967450;29;20418;-83
2023/08/08 13:47:33;;;;;;;2.47;0.95;;;19.60;1.00;;;;;;9943720;29;20220;-82
2023/08/08 13:52:55;;;;;;;3.22;1.13;;;19.60;1.00;;;;;;9960824;29;20208;-83
2023/08/08 13:58:16;;;;;;;2.85;1.33;;;19.70;1.00;;;;;;9970561;29;20227;-79
2023/08/08 14:03:37;;;;;;;5.45;1.02;;;19.90;1.00;;;;;;9975525;29;20247;-78
2023/08/08 14:08:59;;;;;;;2.17;1.08;;;20.00;1.00;;;;;;9972123;29;20247;-77
2023/08/08 14:14:20;;;;;;;1.58;1.02;;;20.00;1.00;;;;;;9994721;29;20201;-82
2023/08/08 14:19:41;;;;;;;2.22;0.90;;;19.60;1.00;;;;;;9962938;29;20254;-78
2023/08/08 14:25:04;;;;;;;4.18;1.00;;;19.60;1.00;;;;;;9959850;29;20231;-81
2023/08/08 14:30:27;;;;;;;6.03;1.80;;;19.60;1.00;;;;;;9964934;29;20267;-77
2023/08/08 14:35:48;;;;;;;2.47;1.00;;;19.50;1.00;;;;;;9960262;29;20543;-79
2023/08/08 14:41:09;;;;;;;4.43;1.85;;;19.10;1.00;;;;;;9966793;29;20294;-77
2023/08/08 14:46:33;;;;;;;1.90;1.10;;;18.90;1.00;;;;;;9969685;29;20207;-80
2023/08/08 14:51:55;;;;;;;1.33;1.10;;;19.00;1.00;;;;;;9967057;29;20385;-78
2023/08/08 14:57:16;;;;;;;1.83;1.45;;;19.00;1.00;;;;;;9977531;29;20207;-78
2023/08/08 15:02:37;;;;;;;1.52;1.27;;;18.90;1.00;;;;;;9979465;29;20232;-84
2023/08/08 15:07:58;;;;;;;1.30;1.20;;;18.80;1.00;;;;;;9971855;29;20208;-78
2023/08/08 15:13:19;;;;;;;2.00;1.20;;;18.70;1.00;;;;;;9972364;29;20290;-77
2023/08/08 15:18:42;;;;;;;2.78;1.08;;;18.50;1.00;;;;;;9970131;29;20230;-76
2023/08/08 15:24:03;;;;;;;2.22;1.55;;;18.30;1.00;;;;;;9969256;29;20232;-77
2023/08/08 15:29:25;;;;;;;1.17;0.70;;;18.10;1.00;;;;;;9968694;29;20211;-76
2023/08/08 15:34:47;;;;;;;3.58;1.10;;;17.50;1.00;;;;;;9968211;29;20269;-77
2023/08/08 15:40:09;;;;;;;1.95;0.98;;;17.00;99.90;;;;;;9968196;29;20521;-76
2023/08/08 15:45:30;;;;;;;2.95;1.50;;;16.70;1.00;;;;;;9969712;29;20211;-79
2023/08/08 15:50:51;;;;;;;5.53;3.47;;;16.40;99.90;;;;;;9968884;29;20591;-76
2023/08/08 15:56:12;;;;;;;5.55;3.55;;;16.10;1.00;;;;;;9969876;29;20200;-76
2023/08/08 16:01:33;;;;;;;2.53;1.10;;;16.30;99.90;;;;;;9970169;29;20231;-76
2023/08/08 16:06:54;;;;;;;6.85;1.60;;;16.10;99.90;;;;;;9969347;29;20229;-78
2023/08/08 16:12:15;;;;;;;4.10;1.60;;;15.70;1.00;;;;;;9996694;29;20209;-75
2023/08/08 16:17:36;;;;;;;2.07;1.00;;;14.90;1.00;;;;;;9980787;29;20213;-76
2023/08/08 16:22:57;;;;;;;4.00;1.20;;;14.10;1.00;;;;;;9956002;29;20280;-75
2023/08/08 16:28:18;;;;;;;2.80;2.10;;;13.90;99.90;;;;;;9967349;29;20266;-77
2023/08/08 16:33:41;;;;;;;2.13;1.20;;;13.70;99.90;;;;;;9981302;29;20197;-77
2023/08/08 16:39:03;;;;;;;3.33;1.70;;;13.70;54.10;;;;;;9965865;29;20249;-75
2023/08/08 16:44:32;;;;;;;3.90;1.57;;;13.90;1.00;;;;;;9956637;29;20223;-76
2023/08/08 16:49:53;;;;;;;2.38;1.40;;;14.00;1.00;;;;;;9968985;29;20261;-77
2023/08/08 16:55:16;;;;;;;4.57;1.90;;;14.10;1.00;;;;;;9967242;29;20219;-76
2023/08/08 17:00:37;;;;;;;2.63;1.40;;;14.20;99.90;;;;;;9967930;29;20224;-76
2023/08/08 17:05:58;;;;;;;3.72;1.50;;;14.40;99.90;;;;;;9967273;29;20279;-75
2023/08/08 17:11:21;;;;;;;6.40;3.10;;;14.40;1.00;;;;;;9967850;29;20220;-76
2023/08/08 17:16:45;;;;;;;3.92;2.60;;;14.40;1.00;;;;;;9968356;29;20201;-75
2023/08/08 17:22:06;;;;;;;2.92;1.80;;;14.30;1.00;;;;;;9954426;29;20331;-75
2023/08/08 17:27:26;;;;;;;4.53;2.50;;;14.10;1.00;;;;;;9965981;29;20298;-75
2023/08/08 17:32:48;;;;;;;3.30;1.70;;;14.00;1.00;;;;;;9966703;29;20235;-75
2023/08/08 17:38:09;;;;;;;3.47;2.33;;;14.20;1.00;;;;;;9966258;29;20316;-77
2023/08/08 17:43:30;;;;;;;4.38;2.80;;;14.20;1.00;;;;;;9964993;29;20403;-75
2023/08/08 17:48:52;;;;;;;4.50;2.35;;;14.10;1.00;;;;;;9965712;29;20499;-75
2023/08/08 17:54:13;;;;;;;4.07;2.20;;;14.10;1.00;;;;;;9966233;29;20255;-75
2023/08/08 17:59:35;;;;;;;5.80;2.08;;;14.00;1.00;;;;;;9967124;29;20201;-76
2023/08/08 18:04:56;;;;;;;3.75;2.10;;;14.00;1.00;;;;;;9965781;29;20196;-75
2023/08/08 18:10:17;;;;;;;4.80;2.50;;;14.00;1.00;;;;;;9967295;29;20238;-75
2023/08/08 18:15:38;;;;;;;4.03;1.77;;;14.00;1.00;;;;;;9974741;29;20211;-75
2023/08/08 18:20:59;;;;;;;4.17;2.50;;;13.90;1.00;;;;;;9941075;29;20250;-75
2023/08/08 18:26:21;;;;;;;4.80;3.00;;;14.00;1.00;;;;;;9999061;29;20204;-79
2023/08/08 18:31:42;;;;;;;5.43;3.17;;;14.00;1.00;;;;;;9986333;29;20372;-74
2023/08/08 18:37:03;;;;;;;21.20;10.77;;;14.00;1.00;;;;;;10002560;29;20238;-74
2023/08/08 18:42:24;;;;;;;26.20;13.35;;;13.90;1.00;;;;;;9944692;29;20234;-74
2023/08/08 18:47:46;;;;;;;8.48;5.85;;;14.00;1.00;;;;;;9951895;29;20271;-74
2023/08/08 18:53:07;;;;;;;4.25;2.78;;;14.00;1.00;;;;;;9965699;29;20208;-74
2023/08/08 18:58:28;;;;;;;3.25;2.20;;;14.10;1.00;;;;;;9964810;29;20551;-79
2023/08/08 19:03:49;;;;;;;4.97;2.03;;;14.00;1.00;;;;;;9963554;29;20271;-76
2023/08/08 19:09:11;;;;;;;2.50;2.22;;;14.00;1.00;;;;;;9965773;29;20236;-76
2023/08/08 19:14:48;;;;;;;3.08;2.45;;;13.90;1.00;;;;;;9964474;29;20197;-77
2023/08/08 19:20:10;;;;;;;3.33;2.47;;;13.90;1.00;;;;;;9966335;29;20211;-76
2023/08/08 19:26:00;;;;;;;3.28;2.50;;;13.90;1.00;;;;;;10007560;29;20497;-76
2023/08/08 19:31:21;;;;;;;7.93;6.15;;;14.00;1.00;;;;;;10009396;29;20211;-76
2023/08/08 19:36:42;;;;;;;16.13;9.40;;;13.90;1.00;;;;;;9977520;29;20713;-76
2023/08/08 19:42:04;;;;;;;10.55;5.15;;;13.80;1.00;;;;;;9967145;29;20246;-76
2023/08/08 19:47:25;;;;;;;4.15;3.55;;;13.90;1.00;;;;;;9971095;29;20208;-75
2023/08/08 19:52:47;;;;;;;3.97;2.57;;;13.90;1.00;;;;;;9969291;29;20213;-76
2023/08/08 19:58:08;;;;;;;3.03;1.40;;;13.90;1.00;;;;;;9969791;29;20496;-76
2023/08/08 20:03:29;;;;;;;1.67;0.90;;;13.80;1.00;;;;;;9967145;29;20492;-75
2023/08/08 20:08:50;;;;;;;1.20;0.90;;;13.60;99.90;;;;;;9970596;29;20218;-76
2023/08/08 20:14:11;;;;;;;2.63;1.00;;;13.50;99.90;;;;;;9967478;29;20531;-76
2023/08/08 20:19:33;;;;;;;1.57;0.90;;;13.50;1.00;;;;;;9969630;29;20241;-77
2023/08/08 20:24:54;;;;;;;1.70;0.98;;;13.40;99.90;;;;;;10007604;29;20279;-76
2023/08/08 20:30:15;;;;;;;1.10;0.90;;;13.40;99.90;;;;;;9969790;29;20291;-76
2023/08/08 20:35:37;;;;;;;1.80;1.37;;;13.30;1.00;;;;;;9969963;29;20246;-76
2023/08/08 20:40:58;;;;;;;4.37;2.70;;;13.30;99.90;;;;;;9966483;29;20600;-77
2023/08/08 20:46:20;;;;;;;2.53;2.10;;;13.30;1.00;;;;;;9981196;29;20200;-76
2023/08/08 20:51:42;;;;;;;2.17;1.40;;;13.20;1.00;;;;;;9950141;29;20200;-76
2023/08/08 20:57:03;;;;;;;6.97;2.20;;;13.30;1.00;;;;;;9937960;29;20215;-76
2023/08/08 21:02:24;;;;;;;3.90;2.00;;;13.20;1.00;;;;;;9967111;29;20227;-77
2023/08/08 21:07:45;;;;;;;5.10;3.47;;;13.20;1.00;;;;;;9980855;29;20264;-76
2023/08/08 21:13:07;;;;;;;6.90;5.50;;;13.10;1.00;;;;;;9970096;29;20212;-77
2023/08/08 21:18:28;;;;;;;2.58;2.38;;;13.10;1.00;;;;;;9954767;29;20285;-76
2023/08/08 21:23:49;;;;;;;2.92;1.27;;;13.00;1.00;;;;;;9990787;29;20237;-76
2023/08/08 21:29:10;;;;;;;6.53;2.80;;;13.00;1.00;;;;;;10005880;29;20524;-76
2023/08/08 21:34:31;;;;;;;2.73;1.33;;;12.90;1.00;;;;;;9999888;29;20484;-76
2023/08/08 21:39:53;;;;;;;1.53;1.13;;;12.80;1.00;;;;;;9971800;29;20253;-76
2023/08/08 21:45:14;;;;;;;1.90;1.30;;;12.70;1.00;;;;;;9992627;29;20403;-77
2023/08/08 21:50:35;;;;;;;0.80;0.80;;;12.70;1.00;;;;;;9951485;29;20252;-76
2023/08/08 21:55:56;;;;;;;2.53;2.00;;;12.60;1.00;;;;;;9975613;29;20223;-76
2023/08/08 22:01:17;;;;;;;1.33;0.83;;;12.50;1.00;;;;;;9977006;29;20479;-77
2023/08/08 22:06:38;;;;;;;2.23;1.13;;;12.60;1.00;;;;;;9928385;30;20457;-77
2023/08/08 22:12:00;;;;;;;1.90;1.00;;;12.50;1.00;;;;;;9934808;29;21779;-76
2023/08/08 22:17:21;;;;;;;1.27;0.90;;;12.50;1.00;;;;;;9966477;29;20402;-76
2023/08/08 22:22:42;;;;;;;1.33;0.60;;;12.50;1.00;;;;;;9974226;29;20233;-75
2023/08/08 22:28:05;;;;;;;1.97;0.60;;;12.50;1.00;;;;;;9978267;29;20206;-77
2023/08/08 22:33:26;;;;;;;0.73;0.60;;;12.40;1.00;;;;;;9964463;29;20217;-76
2023/08/08 22:38:47;;;;;;;1.40;0.80;;;12.30;1.00;;;;;;9965710;29;20233;-76
2023/08/08 22:44:08;;;;;;;1.37;0.90;;;12.20;1.00;;;;;;9964031;29;20238;-76
2023/08/08 22:49:29;;;;;;;1.87;0.90;;;12.10;1.00;;;;;;9965976;29;20201;-76
2023/08/08 22:54:51;;;;;;;1.10;0.70;;;12.10;1.00;;;;;;9965050;29;20218;-76
2023/08/08 23:00:13;;;;;;;1.47;1.10;;;12.10;1.00;;;;;;9967838;29;20209;-75
2023/08/08 23:05:34;;;;;;;1.33;0.77;;;12.10;1.00;;;;;;9971895;29;20222;-76
2023/08/08 23:10:56;;;;;;;1.53;0.60;;;12.10;1.00;;;;;;9971693;29;20430;-76
2023/08/08 23:16:17;;;;;;;1.90;0.90;;;12.10;1.00;;;;;;9970609;29;20515;-76
2023/08/08 23:21:38;;;;;;;1.40;0.80;;;12.00;1.00;;;;;;9981685;29;20230;-76
2023/08/08 23:27:00;;;;;;;1.20;0.80;;;12.00;1.00;;;;;;9968168;29;20202;-76
2023/08/08 23:32:21;;;;;;;2.00;0.83;;;12.00;1.00;;;;;;9969737;29;20738;-77
2023/08/08 23:37:42;;;;;;;1.70;1.00;;;11.90;1.00;;;;;;9969487;29;20233;-76
2023/08/08 23:43:03;;;;;;;1.83;1.20;;;11.90;1.00;;;;;;9969797;29;20297;-76
2023/08/08 23:48:24;;;;;;;1.73;1.40;;;11.90;1.00;;;;;;9970495;29;20205;-77
2023/08/08 23:53:45;;;;;;;1.73;1.10;;;11.80;1.00;;;;;;9969448;29;20533;-76
2023/08/08 23:59:07;;;;;;;0.90;0.80;;;11.90;1.00;;;;;;9970090;29;20285;-77
